Time,TemperatureF,DewpointF,PressureIn,WindDirection,WindDirectionDegrees,WindSpeedMPH,WindSpeedGustMPH,Humidity,HourlyPrecipIn,Conditions,Clouds,dailyrainin,SolarRadiationWatts/m^2,SoftwareType,DateUTC
2013-07-18 00:01:00,58.0,56.0,-100.00,SW,223,0.0,2.0,92,0.00,,,0.03,1.000000,,2013-07-18 07:01:00,
2013-07-18 04:10:00,54.0,53.0,-100.00,ENE,60,0.0,0.0,97,-99.99,,,0.02,1.000000,,2013-07-18 11:10:00,
2013-07-18 04:43:00,54.0,53.0,-100.00,ENE,60,0.0,0.0,97,-99.99,,,0.02,1.000000,,2013-07-18 11:43:00,
2013-07-18 04:52:00,54.0,53.0,-100.00,ENE,60,0.0,0.0,97,-99.99,,,0.02,1.000000,,2013-07-18 11:52:00,
2013-07-18 05:01:00,54.0,53.0,-100.00,ENE,60,0.0,0.0,97,-99.99,,,0.02,1.000000,,2013-07-18 12:01:00,
2013-07-18 05:10:00,54.0,53.0,-100.00,ENE,64,0.0,2.0,96,0.00,,,0.01,1.000000,,2013-07-18 12:10:00,
2013-07-18 05:42:00,54.0,53.0,-100.00,ENE,64,0.0,2.0,96,0.00,,,0.01,1.000000,,2013-07-18 12:42:00,
2013-07-18 05:52:00,54.0,53.0,-100.00,ENE,64,0.0,2.0,96,0.00,,,0.01,1.000000,,2013-07-18 12:52:00,
2013-07-18 06:01:00,54.0,53.0,-100.00,ENE,64,0.0,2.0,96,0.00,,,0.01,1.000000,,2013-07-18 13:01:00,
2013-07-18 06:10:00,51.0,50.0,-100.00,SE,131,0.0,4.0,97,0.00,,,0.00,5.000000,,2013-07-18 13:10:00,
2013-07-18 06:43:00,51.0,50.0,-100.00,SE,131,0.0,4.0,97,0.00,,,0.00,5.000000,,2013-07-18 13:43:00,
2013-07-18 06:53:00,51.0,50.0,-100.00,SE,131,0.0,4.0,97,0.00,,,0.00,5.000000,,2013-07-18 13:53:00,
2013-07-18 07:02:00,51.0,50.0,-100.00,SE,131,0.0,4.0,97,0.00,,,0.00,5.000000,,2013-07-18 14:02:00,
2013-07-18 07:10:00,53.0,52.0,-100.00,ENE,72,0.0,2.0,96,0.00,,,0.00,61.000000,,2013-07-18 14:10:00,
2013-07-18 07:43:00,53.0,52.0,-100.00,ENE,72,0.0,2.0,96,0.00,,,0.00,61.000000,,2013-07-18 14:43:00,
2013-07-18 07:53:00,53.0,52.0,-100.00,ENE,72,0.0,2.0,96,0.00,,,0.00,61.000000,,2013-07-18 14:53:00,
2013-07-18 08:01:00,53.0,52.0,-100.00,ENE,72,0.0,2.0,96,0.00,,,0.00,61.000000,,2013-07-18 15:01:00,
2013-07-18 08:10:00,60.0,53.0,-100.00,ESE,103,1.0,3.0,78,0.00,,,0.00,248.000000,,2013-07-18 15:10:00,
2013-07-18 08:43:00,60.0,53.0,-100.00,ESE,103,1.0,3.0,78,0.00,,,0.00,248.000000,,2013-07-18 15:43:00,
2013-07-18 08:53:00,60.0,53.0,-100.00,ESE,103,1.0,3.0,78,0.00,,,0.00,248.000000,,2013-07-18 15:53:00,
2013-07-18 09:01:00,60.0,53.0,-100.00,ESE,103,1.0,3.0,78,0.00,,,0.00,248.000000,,2013-07-18 16:01:00,
2013-07-18 09:10:00,61.0,53.0,-100.00,NW,319,3.0,6.0,76,0.00,,,-99.99,387.000000,,2013-07-18 16:10:00,
2013-07-18 09:32:00,61.0,53.0,-100.00,NW,319,3.0,6.0,76,0.00,,,-99.99,387.000000,,2013-07-18 16:32:00,
2013-07-18 09:42:00,61.0,53.0,-100.00,NW,319,3.0,6.0,76,0.00,,,-99.99,387.000000,,2013-07-18 16:42:00,
2013-07-18 09:52:00,61.0,53.0,-100.00,NW,319,3.0,6.0,76,0.00,,,-99.99,387.000000,,2013-07-18 16:52:00,
2013-07-18 10:02:00,61.0,53.0,-100.00,NW,319,3.0,6.0,76,0.00,,,-99.99,387.000000,,2013-07-18 17:02:00,
2013-07-18 10:10:00,62.0,54.0,-100.00,SSW,201,4.0,11.0,76,0.00,,,0.00,589.000000,,2013-07-18 17:10:00,
2013-07-18 10:43:00,62.0,54.0,-100.00,SSW,201,4.0,11.0,76,0.00,,,0.00,589.000000,,2013-07-18 17:43:00,
2013-07-18 10:52:00,62.0,54.0,-100.00,SSW,201,4.0,11.0,76,0.00,,,0.00,589.000000,,2013-07-18 17:52:00,
2013-07-18 11:01:00,62.0,54.0,-100.00,SSW,201,4.0,11.0,76,0.00,,,0.00,589.000000,,2013-07-18 18:01:00,
2013-07-18 11:10:00,64.0,56.0,-100.00,WNW,296,3.0,10.0,74,0.00,,,0.00,731.000000,,2013-07-18 18:10:00,
2013-07-18 11:43:00,64.0,56.0,-100.00,WNW,296,3.0,10.0,74,0.00,,,0.00,731.000000,,2013-07-18 18:43:00,
2013-07-18 11:52:00,64.0,56.0,-100.00,WNW,296,3.0,10.0,74,0.00,,,0.00,731.000000,,2013-07-18 18:52:00,
2013-07-18 12:01:00,64.0,56.0,-100.00,WNW,296,3.0,10.0,74,0.00,,,0.00,731.000000,,2013-07-18 19:01:00,
2013-07-18 12:10:00,66.0,56.0,-100.00,SW,228,3.0,11.0,70,0.00,,,0.00,838.000000,,2013-07-18 19:10:00,
2013-07-18 12:53:00,66.0,56.0,-100.00,SW,228,3.0,11.0,70,0.00,,,0.00,838.000000,,2013-07-18 19:53:00,
2013-07-18 13:01:00,66.0,56.0,-100.00,SW,228,3.0,11.0,70,0.00,,,0.00,838.000000,,2013-07-18 20:01:00,
2013-07-18 13:10:00,69.0,55.0,-100.00,SSW,210,3.0,11.0,62,0.00,,,0.00,895.000000,,2013-07-18 20:10:00,
2013-07-18 13:43:00,69.0,55.0,-100.00,SSW,210,3.0,11.0,62,0.00,,,0.00,895.000000,,2013-07-18 20:43:00,
2013-07-18 13:52:00,69.0,55.0,-100.00,SSW,210,3.0,11.0,62,0.00,,,0.00,895.000000,,2013-07-18 20:52:00,
2013-07-18 14:01:00,69.0,55.0,-100.00,SSW,210,3.0,11.0,62,0.00,,,0.00,895.000000,,2013-07-18 21:01:00,
2013-07-18 14:10:00,72.0,57.0,-100.00,SW,221,3.0,11.0,59,0.00,,,0.00,909.000000,,2013-07-18 21:10:00,
2013-07-18 14:43:00,72.0,57.0,-100.00,SW,221,3.0,11.0,59,0.00,,,0.00,909.000000,,2013-07-18 21:43:00,
2013-07-18 14:52:00,72.0,57.0,-100.00,SW,221,3.0,11.0,59,0.00,,,0.00,909.000000,,2013-07-18 21:52:00,
2013-07-18 15:01:00,72.0,57.0,-100.00,SW,221,3.0,11.0,59,0.00,,,0.00,909.000000,,2013-07-18 22:01:00,
2013-07-18 15:10:00,74.0,57.0,-100.00,SSW,207,4.0,11.0,55,0.00,,,0.00,879.000000,,2013-07-18 22:10:00,
2013-07-18 15:43:00,74.0,57.0,-100.00,SSW,207,4.0,11.0,55,0.00,,,0.00,879.000000,,2013-07-18 22:43:00,
2013-07-18 15:53:00,74.0,57.0,-100.00,SSW,207,4.0,11.0,55,0.00,,,0.00,879.000000,,2013-07-18 22:53:00,
2013-07-18 16:01:00,74.0,57.0,-100.00,SSW,207,4.0,11.0,55,0.00,,,0.00,879.000000,,2013-07-18 23:01:00,
2013-07-18 16:10:00,74.0,56.0,-100.00,SW,220,3.0,11.0,54,0.00,,,0.00,794.000000,,2013-07-18 23:10:00,
2013-07-18 16:42:00,74.0,56.0,-100.00,SW,220,3.0,11.0,54,0.00,,,0.00,794.000000,,2013-07-18 23:42:00,
2013-07-18 16:52:00,74.0,56.0,-100.00,SW,220,3.0,11.0,54,0.00,,,0.00,794.000000,,2013-07-18 23:52:00,
2013-07-18 17:01:00,74.0,56.0,-100.00,SW,220,3.0,11.0,54,0.00,,,0.00,794.000000,,2013-07-19 00:01:00,
2013-07-18 17:10:00,75.0,57.0,-100.00,SW,215,3.0,10.0,54,0.00,,,0.00,670.000000,,2013-07-19 00:10:00,
2013-07-18 17:43:00,75.0,57.0,-100.00,SW,215,3.0,10.0,54,0.00,,,0.00,670.000000,,2013-07-19 00:43:00,
2013-07-18 17:52:00,75.0,57.0,-100.00,SW,215,3.0,10.0,54,0.00,,,0.00,670.000000,,2013-07-19 00:52:00,
2013-07-18 18:01:00,75.0,57.0,-100.00,SW,215,3.0,10.0,54,0.00,,,0.00,670.000000,,2013-07-19 01:01:00,
2013-07-18 18:10:00,75.0,58.0,-100.00,West,264,2.0,10.0,55,0.00,,,0.00,511.000000,,2013-07-19 01:10:00,
2013-07-18 18:42:00,75.0,58.0,-100.00,West,264,2.0,10.0,55,0.00,,,0.00,511.000000,,2013-07-19 01:42:00,
2013-07-18 18:52:00,75.0,58.0,-100.00,West,264,2.0,10.0,55,0.00,,,0.00,511.000000,,2013-07-19 01:52:00,
2013-07-18 19:01:00,75.0,58.0,-100.00,West,264,2.0,10.0,55,0.00,,,0.00,511.000000,,2013-07-19 02:01:00,
2013-07-18 19:10:00,71.0,56.0,-100.00,WSW,251,2.0,9.0,60,0.00,,,0.00,295.000000,,2013-07-19 02:10:00,
2013-07-18 19:42:00,71.0,56.0,-100.00,WSW,251,2.0,9.0,60,0.00,,,0.00,295.000000,,2013-07-19 02:42:00,
2013-07-18 19:52:00,71.0,56.0,-100.00,WSW,251,2.0,9.0,60,0.00,,,0.00,295.000000,,2013-07-19 02:52:00,
2013-07-18 20:01:00,71.0,56.0,-100.00,WSW,251,2.0,9.0,60,0.00,,,0.00,295.000000,,2013-07-19 03:01:00,
2013-07-18 20:10:00,66.0,58.0,-100.00,WNW,291,0.0,6.0,75,0.00,,,0.00,29.000000,,2013-07-19 03:10:00,
2013-07-18 20:43:00,66.0,58.0,-100.00,WNW,291,0.0,6.0,75,0.00,,,0.00,29.000000,,2013-07-19 03:43:00,
2013-07-18 20:52:00,66.0,58.0,-100.00,WNW,291,0.0,6.0,75,0.00,,,0.00,29.000000,,2013-07-19 03:52:00,
2013-07-18 21:02:00,66.0,58.0,-100.00,WNW,291,0.0,6.0,75,0.00,,,0.00,29.000000,,2013-07-19 04:02:00,
2013-07-18 21:10:00,61.0,58.0,-100.00,North,8,0.0,1.0,90,0.00,,,0.00,11.000000,,2013-07-19 04:10:00,
2013-07-18 21:44:00,61.0,58.0,-100.00,North,8,0.0,1.0,90,0.00,,,0.00,11.000000,,2013-07-19 04:44:00,
2013-07-18 21:52:00,61.0,58.0,-100.00,North,8,0.0,1.0,90,0.00,,,0.00,11.000000,,2013-07-19 04:52:00,
2013-07-18 22:02:00,61.0,58.0,-100.00,North,8,0.0,1.0,90,0.00,,,0.00,11.000000,,2013-07-19 05:02:00,
2013-07-18 22:10:00,57.0,55.0,-100.00,North,8,0.0,0.0,94,0.00,,,0.00,1.000000,,2013-07-19 05:10:00,
2013-07-18 22:43:00,57.0,55.0,-100.00,North,8,0.0,0.0,94,0.00,,,0.00,1.000000,,2013-07-19 05:43:00,
2013-07-18 22:53:00,57.0,55.0,-100.00,North,8,0.0,0.0,94,0.00,,,0.00,1.000000,,2013-07-19 05:53:00,
2013-07-18 23:01:00,57.0,55.0,-100.00,North,8,0.0,0.0,94,0.00,,,0.00,1.000000,,2013-07-19 06:01:00,
2013-07-18 23:10:00,55.0,54.0,-100.00,North,8,0.0,1.0,96,0.00,,,0.00,1.000000,,2013-07-19 06:10:00,
2013-07-18 23:43:00,55.0,54.0,-100.00,North,8,0.0,1.0,96,0.00,,,0.00,1.000000,,2013-07-19 06:43:00,
2013-07-18 23:52:00,55.0,54.0,-100.00,North,8,0.0,1.0,96,0.00,,,0.00,1.000000,,2013-07-19 06:52:00,